Port Columbus International Airport
KCMH : now visible

Airfield :











YOU CAN JOIN US ON...

 
LOGIN :

Register | Disclaimer

   EN    FR    IT 

 









Legend :    VFR   Marginal VFR   IFR   Intensive IFR   Very Intensive IFR
Visi :
Ceiling :
>= 8 km
>= 3000ft
5 to 8 km
1000 to 3000 ft
1500m to 5 km
500 to 1000 ft
800 to 1500m
200 to 500 ft
< 800m
< 200 ft
Symbols :   Thunderstorms  Fog  Heavy snow  Heavy precipitations  Wind > 20 kt






- Airport Elevation : 815 ft
- IATA code : CMH


KCMH - Port Columbus International

CURRENT METAR :
  • 221251Z 25005KT 6SM BR BKN010 OVC015 20/20 A3008 RMK AO2 RAE04 SLP183 P0000 T02000200

EXPIRED METARs :
  • 221228Z 26006KT 7SM BKN010 19/19 A3008 RMK AO2 RAE04 P0000 T01940194
  • 221159Z 22005KT 8SM -RA FEW008 SCT013 OVC130 19/19 A3007 RMK AO2 P0000 T01940194
  • 221151Z 19004KT 7SM -RA FEW008 BKN014 OVC060 19/19 A3007 RMK AO2 RAB46 SLP179 P0000 60017 70109 T01940194 10194 20183 51027
  • 221124Z 22006KT 7SM SCT006 BKN014 OVC060 19/19 A3007 RMK AO2 T01890189
  • 221051Z 25005KT 5SM BR BKN006 OVC060 19/19 A3006 RMK AO2 SLP174 T01890189

TAF KCMH
Valid from the 22 at 12:00 until the 23 at 12:00 UTC


221135Z 2212/2312 22006KT P6SM VCSH SCT006 BKN014 OVC060
FM221300 26007KT P6SM VCSH OVC015
FM221500 29008KT P6SM VCSH OVC015
FM221700 32010KT P6SM OVC025
FM222000 33009KT P6SM BKN050
KZID FIR / North America



MET'MAP, your aeronautical weather chart ! - Copyright ORBIFLY December 2007 - Disclaimer

ORBIFLY MET'MAP TEAM :

Programming & Development : Alexandra Zaïnal
Original concept : Baudouin d'Aumeries
Technical & hardware support : Manuel Goepfert
Assistance : Marc-Olivier Méhu

Contact : metmap@orbifly.com




SOURCES & CREDITS :

   NOAA       Earth
Advisory